Time;durP1;ratioP1;P1;durP2;ratioP2;P2;SDS_P1;SDS_P2;PMS_P1;PMS_P2;Temp;Humidity;BMP_temperature;BMP_pressure;BME280_temperature;BME280_humidity;BME280_pressure;Samples;Min_cycle;Max_cycle;Signal;HPM_P1;HPM_P2
2021/07/16 00:01:45;;;;;;;15.13;7.95;;;17.00;99.90;;;;;;5027339;28;20046;-55
2021/07/16 00:04:14;;;;;;;21.33;7.38;;;16.90;99.90;;;;;;5027543;28;20069;-54
2021/07/16 00:06:46;;;;;;;;;;;16.90;99.90;;;;;;5027768;28;20119;-53
2021/07/16 00:09:23;;;;;;;17.08;7.55;;;16.80;99.90;;;;;;5027450;28;19975;-55
2021/07/16 00:11:52;;;;;;;21.95;8.30;;;16.80;99.90;;;;;;5021264;28;20049;-53
2021/07/16 00:14:27;;;;;;;16.52;7.95;;;16.80;99.90;;;;;;5027932;28;20493;-54
2021/07/16 00:16:57;;;;;;;24.90;8.25;;;16.80;99.90;;;;;;5028105;28;20099;-55
2021/07/16 00:19:28;;;;;;;20.38;8.18;;;16.80;99.90;;;;;;5026917;28;20049;-55
2021/07/16 00:22:00;;;;;;;20.65;7.65;;;16.80;99.90;;;;;;5027465;28;20050;-55
2021/07/16 00:24:31;;;;;;;;;;;16.80;99.90;;;;;;5028250;28;20054;-54
2021/07/16 00:27:09;;;;;;;26.40;10.30;;;16.80;99.90;;;;;;5027731;28;20311;-54
2021/07/16 00:29:41;;;;;;;19.90;8.00;;;16.80;99.90;;;;;;5026888;28;20063;-55
2021/07/16 00:32:10;;;;;;;27.30;8.75;;;16.80;99.90;;;;;;5013995;28;20081;-54
2021/07/16 00:34:44;;;;;;;24.15;7.75;;;16.70;99.90;;;;;;5024021;28;20417;-53
2021/07/16 00:37:16;;;;;;;20.95;8.38;;;16.70;99.90;;;;;;5027191;28;20486;-55
2021/07/16 00:39:50;;;;;;;19.13;6.90;;;16.70;99.90;;;;;;5026914;28;20784;-54
2021/07/16 00:42:19;;;;;;;20.05;8.10;;;16.70;99.90;;;;;;5008037;28;20077;-54
2021/07/16 00:44:56;;;;;;;21.88;8.00;;;16.70;99.90;;;;;;5020105;28;20053;-55
2021/07/16 00:47:27;;;;;;;18.15;8.25;;;16.70;99.90;;;;;;5027007;28;20050;-54
2021/07/16 00:49:58;;;;;;;26.63;8.63;;;16.70;99.90;;;;;;5027051;28;20910;-53
2021/07/16 00:52:24;;;;;;;20.00;8.55;;;16.70;99.90;;;;;;5028049;28;20053;-55
2021/07/16 00:54:56;;;;;;;22.52;8.23;;;16.70;99.90;;;;;;5026861;28;20501;-53
2021/07/16 00:57:31;;;;;;;18.75;7.97;;;16.70;99.90;;;;;;5026586;28;20144;-54
2021/07/16 01:00:03;;;;;;;21.23;8.60;;;16.60;99.90;;;;;;5026392;28;20144;-53
2021/07/16 01:02:36;;;;;;;19.45;8.15;;;16.70;99.90;;;;;;5027143;28;20053;-54
2021/07/16 01:05:09;;;;;;;17.90;7.43;;;16.60;99.90;;;;;;5025202;28;20053;-55
2021/07/16 01:07:39;;;;;;;19.42;7.80;;;16.60;99.90;;;;;;5025796;28;20045;-55
2021/07/16 01:10:10;;;;;;;20.70;8.25;;;16.60;99.90;;;;;;5029803;28;20120;-54
2021/07/16 01:12:44;;;;;;;22.85;7.80;;;16.60;99.90;;;;;;5028175;28;20152;-54
2021/07/16 01:15:15;;;;;;;18.73;7.00;;;16.60;99.90;;;;;;5026834;28;20046;-54
2021/07/16 01:17:43;;;;;;;27.08;9.07;;;16.60;99.90;;;;;;5026404;28;20319;-55
2021/07/16 01:20:22;;;;;;;19.63;8.55;;;16.60;99.90;;;;;;5027314;28;20056;-53
2021/07/16 01:22:56;;;;;;;20.35;7.57;;;16.60;99.90;;;;;;5026115;28;20224;-54
2021/07/16 01:25:28;;;;;;;19.48;8.07;;;16.60;99.90;;;;;;5029443;28;20053;-51
2021/07/16 01:28:00;;;;;;;21.47;8.03;;;16.50;99.90;;;;;;5027797;28;20106;-55
2021/07/16 01:30:34;;;;;;;23.48;7.85;;;16.50;99.90;;;;;;5024548;28;20053;-55
2021/07/16 01:33:07;;;;;;;23.67;8.00;;;16.50;99.90;;;;;;5026668;28;20604;-53
2021/07/16 01:35:36;;;;;;;22.23;8.23;;;16.50;99.90;;;;;;5027674;28;20046;-55
2021/07/16 01:38:05;;;;;;;19.50;8.32;;;16.50;99.90;;;;;;5026534;28;20072;-56
2021/07/16 01:40:36;;;;;;;23.40;8.02;;;16.50;99.90;;;;;;5025995;28;20137;-55
2021/07/16 01:43:09;;;;;;;21.05;7.65;;;16.50;99.90;;;;;;5027093;28;20076;-52
2021/07/16 01:45:41;;;;;;;21.35;7.15;;;16.40;99.90;;;;;;5029829;28;20061;-55
2021/07/16 01:48:12;;;;;;;19.70;7.65;;;16.40;99.90;;;;;;5030055;28;20060;-55
2021/07/16 01:50:43;;;;;;;20.42;7.25;;;16.40;99.90;;;;;;5029801;28;20578;-55
2021/07/16 01:53:19;;;;;;;20.30;7.68;;;16.40;99.90;;;;;;5030480;28;20156;-55
2021/07/16 01:55:51;;;;;;;21.92;7.43;;;16.40;99.90;;;;;;5029244;28;20143;-55
2021/07/16 01:58:23;;;;;;;20.05;7.90;;;16.40;99.90;;;;;;5024866;28;20056;-53
2021/07/16 02:00:54;;;;;;;21.55;7.50;;;16.40;99.90;;;;;;5023784;28;20099;-55
2021/07/16 02:03:26;;;;;;;31.75;10.57;;;16.40;99.90;;;;;;5026847;28;20128;-54
2021/07/16 02:05:55;;;;;;;17.88;7.38;;;16.30;99.90;;;;;;5045320;28;20056;-54
2021/07/16 02:08:26;;;;;;;21.55;7.70;;;16.40;99.90;;;;;;5029716;28;20401;-54
2021/07/16 02:10:55;;;;;;;17.87;7.23;;;16.40;99.90;;;;;;5030333;28;20479;-55
2021/07/16 02:13:23;;;;;;;21.92;6.57;;;16.30;99.90;;;;;;5029506;28;20057;-55
2021/07/16 02:15:55;;;;;;;17.92;7.40;;;16.30;99.90;;;;;;5030986;28;20084;-55
2021/07/16 02:18:25;;;;;;;24.58;7.63;;;16.30;99.90;;;;;;5028698;28;20041;-55
2021/07/16 02:20:54;;;;;;;27.08;7.22;;;16.30;99.90;;;;;;5030711;28;20049;-53
2021/07/16 02:23:28;;;;;;;25.55;7.80;;;16.20;99.90;;;;;;5027551;28;20060;-55
2021/07/16 02:25:58;;;;;;;19.58;6.78;;;16.20;99.90;;;;;;5029993;28;20053;-55
2021/07/16 02:28:30;;;;;;;20.63;7.68;;;16.20;99.90;;;;;;5029657;28;20052;-54
2021/07/16 02:31:01;;;;;;;21.58;7.93;;;16.20;99.90;;;;;;5028604;28;20053;-55
2021/07/16 02:33:31;;;;;;;20.42;7.65;;;16.20;99.90;;;;;;5028050;28;20045;-54
2021/07/16 02:35:59;;;;;;;23.00;7.47;;;16.20;99.90;;;;;;5031681;28;20060;-52
2021/07/16 02:38:29;;;;;;;20.38;7.05;;;16.10;99.90;;;;;;5027329;28;20053;-54
2021/07/16 02:40:58;;;;;;;20.00;7.00;;;16.10;99.90;;;;;;5030154;28;20053;-54
2021/07/16 02:43:27;;;;;;;17.67;6.32;;;16.10;99.90;;;;;;5029314;28;20053;-55
2021/07/16 02:45:55;;;;;;;21.98;7.93;;;16.10;99.90;;;;;;5030022;28;20053;-54
2021/07/16 02:48:27;;;;;;;24.67;7.10;;;16.10;99.90;;;;;;5029298;28;20088;-54
2021/07/16 02:50:56;;;;;;;23.92;7.88;;;16.10;99.90;;;;;;5028664;28;20045;-54
2021/07/16 02:53:31;;;;;;;20.13;7.07;;;16.10;99.90;;;;;;5028620;28;20055;-56
2021/07/16 02:56:03;;;;;;;22.35;7.35;;;16.10;99.90;;;;;;5027958;28;20092;-54
2021/07/16 02:58:34;;;;;;;21.83;6.88;;;16.10;99.90;;;;;;5014185;28;20054;-52
2021/07/16 03:01:04;;;;;;;24.08;7.53;;;16.10;99.90;;;;;;5029486;28;20767;-55
2021/07/16 03:03:40;;;;;;;23.67;7.40;;;16.00;99.90;;;;;;5017750;28;20111;-53
2021/07/16 03:06:11;;;;;;;28.02;7.63;;;16.00;99.90;;;;;;5024567;28;20081;-56
2021/07/16 03:08:39;;;;;;;19.48;6.68;;;16.00;99.90;;;;;;5029128;28;20057;-55
2021/07/16 03:11:11;;;;;;;20.77;6.85;;;15.90;99.90;;;;;;5029055;28;20060;-55
2021/07/16 03:13:37;;;;;;;27.92;6.53;;;15.90;99.90;;;;;;5021097;28;20053;-53
2021/07/16 03:16:06;;;;;;;23.92;7.40;;;15.90;99.90;;;;;;5027901;28;20072;-53
2021/07/16 03:18:36;;;;;;;19.60;6.90;;;15.80;99.90;;;;;;5028807;28;20124;-55
2021/07/16 03:21:09;;;;;;;21.58;7.45;;;15.80;99.90;;;;;;5028238;28;20042;-55
2021/07/16 03:23:39;;;;;;;23.75;7.43;;;15.80;99.90;;;;;;5028264;28;20053;-55
2021/07/16 03:26:09;;;;;;;19.73;6.65;;;15.90;99.90;;;;;;5025943;28;20156;-56
2021/07/16 03:28:42;;;;;;;21.92;6.68;;;15.80;99.90;;;;;;5012033;28;20041;-56
2021/07/16 03:31:11;;;;;;;18.00;5.90;;;15.90;99.90;;;;;;5028262;28;20046;-54
2021/07/16 03:33:37;;;;;;;21.95;6.90;;;15.90;99.90;;;;;;5028203;28;20057;-56
2021/07/16 03:36:07;;;;;;;23.33;7.95;;;15.80;99.90;;;;;;5027054;28;20154;-56
2021/07/16 03:38:37;;;;;;;26.80;7.72;;;15.90;99.90;;;;;;5030849;28;20498;-55
2021/07/16 03:41:10;;;;;;;21.52;6.80;;;15.90;99.90;;;;;;5028729;28;20592;-54
2021/07/16 03:43:39;;;;;;;22.05;6.97;;;15.90;99.90;;;;;;5027291;28;20107;-55
2021/07/16 03:46:10;;;;;;;25.85;8.18;;;15.90;99.90;;;;;;5028392;28;20068;-53
2021/07/16 03:48:44;;;;;;;21.52;7.70;;;15.90;99.90;;;;;;5027499;28;20138;-55
2021/07/16 03:51:15;;;;;;;20.20;7.70;;;15.90;99.90;;;;;;5028342;28;20058;-52
2021/07/16 03:53:46;;;;;;;21.95;6.65;;;15.90;99.90;;;;;;5027695;28;20041;-56
2021/07/16 03:56:21;;;;;;;22.15;6.82;;;15.90;99.90;;;;;;5028252;28;20060;-50
2021/07/16 03:58:53;;;;;;;23.80;7.32;;;15.90;99.90;;;;;;5026672;28;20053;-54
2021/07/16 04:01:19;;;;;;;21.92;7.18;;;15.90;99.90;;;;;;5027146;28;20363;-55
2021/07/16 04:03:50;;;;;;;19.27;7.40;;;15.90;99.90;;;;;;5024002;28;20121;-55
2021/07/16 04:06:20;;;;;;;26.95;7.57;;;15.90;99.90;;;;;;5015335;28;20053;-55
2021/07/16 04:09:00;;;;;;;20.40;6.35;;;15.90;99.90;;;;;;5027484;28;20041;-55
2021/07/16 04:11:28;;;;;;;27.23;7.22;;;15.90;99.90;;;;;;5027901;28;20067;-55
2021/07/16 04:14:00;;;;;;;19.92;7.05;;;15.90;99.90;;;;;;5044676;28;20041;-54
2021/07/16 04:16:29;;;;;;;23.98;6.90;;;15.90;99.90;;;;;;5028573;28;20064;-55
2021/07/16 04:18:59;;;;;;;13.63;6.40;;;15.90;99.90;;;;;;5026613;28;20128;-55
2021/07/16 04:21:25;;;;;;;19.85;6.72;;;15.90;99.90;;;;;;5032490;28;20405;-44
2021/07/16 04:23:55;;;;;;;21.85;7.30;;;15.90;99.90;;;;;;5027026;28;20502;-54
2021/07/16 04:26:26;;;;;;;24.10;6.95;;;16.00;99.90;;;;;;5027310;28;20130;-57
2021/07/16 04:28:55;;;;;;;22.98;6.43;;;16.00;99.90;;;;;;5026795;28;20148;-58
2021/07/16 04:31:26;;;;;;;24.85;6.50;;;16.00;99.90;;;;;;5024921;28;20540;-58
2021/07/16 04:33:58;;;;;;;20.20;5.88;;;16.00;99.90;;;;;;5021876;28;20052;-56
2021/07/16 04:36:30;;;;;;;30.00;7.50;;;16.00;99.90;;;;;;5027035;28;20045;-51
2021/07/16 04:39:04;;;;;;;28.42;7.15;;;16.10;99.90;;;;;;5027474;28;20124;-57
2021/07/16 04:41:35;;;;;;;19.40;6.38;;;16.10;99.90;;;;;;5028032;28;20551;-58
2021/07/16 04:44:05;;;;;;;21.25;6.50;;;16.10;99.90;;;;;;5027628;28;20049;-57
2021/07/16 04:46:36;;;;;;;30.05;6.32;;;16.20;99.90;;;;;;5013205;28;20188;-58
2021/07/16 04:49:07;;;;;;;19.77;6.72;;;16.20;99.90;;;;;;5014517;28;20061;-57
2021/07/16 04:51:36;;;;;;;23.48;6.80;;;16.20;99.90;;;;;;5027910;28;20099;-59
2021/07/16 04:54:11;;;;;;;22.48;5.75;;;16.30;99.90;;;;;;5027614;28;20179;-56
2021/07/16 04:56:44;;;;;;;18.95;6.82;;;16.30;99.90;;;;;;5021835;28;20103;-54
2021/07/16 04:59:21;;;;;;;20.25;6.28;;;16.30;99.90;;;;;;5019656;28;20053;-59
2021/07/16 05:01:53;;;;;;;22.70;6.78;;;16.30;99.90;;;;;;5028948;28;20046;-58
2021/07/16 05:04:21;;;;;;;23.25;6.85;;;16.40;99.90;;;;;;5027257;28;20072;-58
2021/07/16 05:06:53;;;;;;;25.50;7.03;;;16.40;99.90;;;;;;5026549;28;20064;-56
2021/07/16 05:09:24;;;;;;;21.70;7.10;;;16.40;99.90;;;;;;5026594;28;20056;-57
2021/07/16 05:11:57;;;;;;;27.52;6.80;;;16.50;99.90;;;;;;5026558;28;20056;-58
2021/07/16 05:14:34;;;;;;;22.67;6.65;;;16.50;99.90;;;;;;5017292;28;20137;-56
2021/07/16 05:17:03;;;;;;;21.48;6.20;;;16.40;99.90;;;;;;5007629;28;20054;-58
2021/07/16 05:19:37;;;;;;;;;;;16.50;99.90;;;;;;5009079;28;20060;-56
2021/07/16 05:22:10;;;;;;;26.38;7.55;;;16.50;99.90;;;;;;5029527;28;20374;-58
2021/07/16 05:24:42;;;;;;;25.45;6.63;;;16.50;99.90;;;;;;5030684;28;20054;-58
2021/07/16 05:27:10;;;;;;;23.98;6.88;;;16.60;99.90;;;;;;5032108;28;20046;-58
2021/07/16 05:29:47;;;;;;;21.95;5.50;;;16.50;99.90;;;;;;5031000;28;20478;-57
2021/07/16 05:32:24;;;;;;;22.73;6.45;;;16.50;99.90;;;;;;5022553;28;20680;-57
2021/07/16 05:34:55;;;;;;;31.35;7.43;;;16.50;99.90;;;;;;5052887;28;20080;-55
2021/07/16 05:37:27;;;;;;;26.20;6.90;;;16.50;99.90;;;;;;5031511;28;20053;-58
2021/07/16 05:39:58;;;;;;;29.60;7.72;;;16.50;99.90;;;;;;5030789;28;20053;-57
2021/07/16 05:42:28;;;;;;;19.02;6.43;;;16.50;99.90;;;;;;5031337;28;20417;-59
2021/07/16 05:45:00;;;;;;;20.52;6.65;;;16.60;99.90;;;;;;5029797;28;20045;-59
2021/07/16 05:47:28;;;;;;;29.23;7.78;;;16.60;99.90;;;;;;5036194;28;20061;-58
2021/07/16 05:50:00;;;;;;;27.58;7.53;;;16.70;99.90;;;;;;5030077;28;20056;-53
2021/07/16 05:52:32;;;;;;;22.63;6.45;;;16.70;99.90;;;;;;5030105;28;20052;-59
2021/07/16 05:55:05;;;;;;;22.50;6.97;;;16.80;99.90;;;;;;5030378;28;20073;-59
2021/07/16 05:57:31;;;;;;;28.55;7.60;;;16.80;99.90;;;;;;5025649;28;20056;-57
2021/07/16 05:59:58;;;;;;;25.52;6.63;;;16.80;99.90;;;;;;5024605;28;20103;-56
2021/07/16 06:02:34;;;;;;;24.90;6.32;;;16.90;99.90;;;;;;5021854;28;20129;-58
2021/07/16 06:05:04;;;;;;;26.52;6.95;;;16.90;99.90;;;;;;5029447;28;20107;-57
2021/07/16 06:07:31;;;;;;;23.90;6.78;;;16.90;99.90;;;;;;5030178;28;20418;-58
2021/07/16 06:10:07;;;;;;;32.38;8.93;;;16.80;99.90;;;;;;5029796;28;20061;-58
2021/07/16 06:12:35;;;;;;;34.25;16.38;;;16.80;99.90;;;;;;5029738;28;20783;-59
2021/07/16 06:15:06;;;;;;;42.80;24.73;;;16.80;99.90;;;;;;5023167;28;20049;-57
2021/07/16 06:17:36;;;;;;;24.13;7.25;;;16.80;99.90;;;;;;5029881;28;20049;-55
2021/07/16 06:20:08;;;;;;;27.42;6.63;;;16.80;99.90;;;;;;5029849;28;20133;-55
2021/07/16 06:22:35;;;;;;;28.05;9.43;;;16.80;99.90;;;;;;5029271;28;20531;-58
2021/07/16 06:25:07;;;;;;;23.13;8.77;;;16.90;99.90;;;;;;5029660;28;20060;-58
2021/07/16 06:27:34;;;;;;;24.90;7.38;;;16.90;99.90;;;;;;5029058;28;20065;-58
2021/07/16 06:30:08;;;;;;;27.80;9.65;;;17.00;99.90;;;;;;5029362;28;20896;-57
2021/07/16 06:32:38;;;;;;;30.15;9.00;;;17.00;99.90;;;;;;5026001;28;20429;-60
2021/07/16 06:35:09;;;;;;;54.25;31.30;;;17.10;99.90;;;;;;5030447;28;20076;-59
2021/07/16 06:37:36;;;;;;;82.45;62.03;;;17.20;99.90;;;;;;5029304;28;20227;-58
2021/07/16 06:40:07;;;;;;;32.85;16.63;;;17.40;99.90;;;;;;5027653;28;20045;-57
2021/07/16 06:42:41;;;;;;;30.65;12.18;;;17.40;99.90;;;;;;5029578;28;20053;-60
2021/07/16 06:45:13;;;;;;;28.48;8.32;;;17.40;99.90;;;;;;5029815;28;20049;-55
2021/07/16 06:47:40;;;;;;;31.08;11.98;;;17.40;99.90;;;;;;5030454;28;20514;-58
2021/07/16 06:50:10;;;;;;;27.33;6.95;;;17.50;99.90;;;;;;5029439;28;20733;-59
2021/07/16 06:52:41;;;;;;;34.33;8.02;;;17.50;99.90;;;;;;5027590;28;20053;-56
2021/07/16 06:55:10;;;;;;;27.05;7.00;;;17.50;99.90;;;;;;5026133;28;20129;-55
2021/07/16 06:57:37;;;;;;;26.58;9.63;;;17.40;99.90;;;;;;5032930;28;20045;-59
2021/07/16 07:00:09;;;;;;;66.00;42.08;;;17.40;99.90;;;;;;5035314;28;20037;-57
2021/07/16 07:02:36;;;;;;;30.98;11.27;;;17.40;99.90;;;;;;5028932;28;20052;-58
2021/07/16 07:05:06;;;;;;;28.92;7.55;;;17.40;99.90;;;;;;5029206;28;20046;-56
2021/07/16 07:07:32;;;;;;;22.23;6.90;;;17.40;99.90;;;;;;5029496;28;20068;-59
2021/07/16 07:10:01;;;;;;;35.88;15.52;;;17.40;99.90;;;;;;5029129;28;20054;-58
2021/07/16 07:12:35;;;;;;;29.05;9.45;;;17.40;99.90;;;;;;5028045;28;20045;-59
2021/07/16 07:15:01;;;;;;;30.75;12.93;;;17.30;99.90;;;;;;5029769;28;20057;-57
2021/07/16 07:17:36;;;;;;;35.53;15.40;;;17.40;99.90;;;;;;5029072;28;20146;-58
2021/07/16 07:20:04;;;;;;;40.38;19.92;;;17.40;99.90;;;;;;5029509;28;20060;-56
2021/07/16 07:22:31;;;;;;;32.83;12.38;;;17.40;99.90;;;;;;5029455;28;20127;-59
2021/07/16 07:25:02;;;;;;;24.08;6.93;;;17.40;99.90;;;;;;5029227;28;20072;-57
2021/07/16 07:27:32;;;;;;;23.85;6.63;;;17.40;99.90;;;;;;5029792;28;20065;-58
2021/07/16 07:30:09;;;;;;;25.25;7.18;;;17.50;99.90;;;;;;5029247;28;20084;-56
2021/07/16 07:32:39;;;;;;;22.98;6.45;;;17.50;99.90;;;;;;5028134;28;20561;-51
2021/07/16 07:35:09;;;;;;;30.42;6.22;;;17.50;99.90;;;;;;5030306;28;20115;-58
2021/07/16 07:37:38;;;;;;;27.67;7.53;;;17.50;99.90;;;;;;5028529;28;20041;-57
2021/07/16 07:40:11;;;;;;;28.58;9.55;;;17.50;99.90;;;;;;5029433;28;20052;-57
2021/07/16 07:42:37;;;;;;;23.30;6.78;;;17.60;99.90;;;;;;5028030;28;20573;-58
2021/07/16 07:45:13;;;;;;;26.33;10.13;;;17.60;99.90;;;;;;5028509;28;20053;-56
2021/07/16 07:47:47;;;;;;;28.60;7.55;;;17.70;99.90;;;;;;5028320;28;20053;-57
2021/07/16 07:50:17;;;;;;;34.53;8.98;;;17.70;99.90;;;;;;5032020;28;20068;-56
2021/07/16 07:52:48;;;;;;;25.40;9.55;;;17.70;99.90;;;;;;5027184;28;20053;-58
2021/07/16 07:55:16;;;;;;;24.20;6.85;;;17.70;99.90;;;;;;5028665;28;20115;-56
2021/07/16 07:57:43;;;;;;;29.80;11.43;;;17.80;99.90;;;;;;5028335;28;20431;-55
2021/07/16 08:00:20;;;;;;;29.23;11.57;;;17.80;99.90;;;;;;5027664;28;20081;-56
2021/07/16 08:02:47;;;;;;;27.35;7.07;;;17.90;99.90;;;;;;5018008;28;20525;-57
2021/07/16 08:05:21;;;;;;;36.15;14.85;;;18.00;99.90;;;;;;5027390;28;20056;-58
2021/07/16 08:07:56;;;;;;;24.58;9.68;;;18.10;99.90;;;;;;5008230;28;20474;-57
2021/07/16 08:10:22;;;;;;;34.85;7.22;;;18.10;99.90;;;;;;5015465;28;20046;-55
2021/07/16 08:12:49;;;;;;;31.75;8.18;;;18.10;99.90;;;;;;5009552;28;20085;-58
2021/07/16 08:15:17;;;;;;;26.73;8.35;;;18.10;99.90;;;;;;5008679;28;20144;-59
2021/07/16 08:17:48;;;;;;;28.65;7.07;;;18.20;99.90;;;;;;5026132;28;20141;-58
2021/07/16 08:20:23;;;;;;;35.42;9.60;;;18.20;99.90;;;;;;5027469;28;20056;-58
2021/07/16 08:22:57;;;;;;;32.65;6.90;;;18.20;99.90;;;;;;5034993;28;20049;-58
2021/07/16 08:25:24;;;;;;;24.63;6.45;;;18.20;99.90;;;;;;5028206;28;20630;-57
2021/07/16 08:27:50;;;;;;;43.13;21.20;;;18.20;99.90;;;;;;5027948;28;20050;-54
2021/07/16 08:30:25;;;;;;;62.97;48.08;;;18.30;99.90;;;;;;5027721;28;20057;-56
2021/07/16 08:32:51;;;;;;;30.85;8.73;;;18.40;99.90;;;;;;5027638;28;20050;-57
2021/07/16 08:35:20;;;;;;;39.72;22.23;;;18.40;99.90;;;;;;5027661;28;20057;-58
2021/07/16 08:37:49;;;;;;;22.00;6.30;;;18.50;99.90;;;;;;5033870;28;20041;-58
2021/07/16 08:40:19;;;;;;;33.22;13.80;;;18.60;99.90;;;;;;5011193;28;20407;-57
2021/07/16 08:42:48;;;;;;;28.83;8.77;;;18.60;99.90;;;;;;5026897;28;20079;-59
2021/07/16 08:45:16;;;;;;;27.23;6.38;;;18.60;99.90;;;;;;5015759;28;20049;-57
2021/07/16 08:47:49;;;;;;;33.92;12.25;;;18.60;99.90;;;;;;5023086;28;20057;-57
2021/07/16 08:50:20;;;;;;;31.23;7.38;;;18.60;99.90;;;;;;5026076;28;20083;-57
2021/07/16 08:53:00;;;;;;;31.52;6.88;;;18.60;99.90;;;;;;5026908;28;20577;-56
2021/07/16 08:55:36;;;;;;;25.80;6.30;;;18.60;99.90;;;;;;5011220;28;20077;-57
2021/07/16 08:58:07;;;;;;;24.00;6.78;;;18.70;99.90;;;;;;5030367;28;20045;-58
2021/07/16 09:00:36;;;;;;;22.70;7.63;;;18.70;99.90;;;;;;5027373;28;20053;-58
2021/07/16 09:03:14;;;;;;;29.75;6.65;;;18.80;99.90;;;;;;5032509;28;20099;-59
2021/07/16 09:05:47;;;;;;;30.52;12.73;;;18.80;99.90;;;;;;5027965;28;20115;-57
2021/07/16 09:08:23;;;;;;;26.17;6.88;;;18.80;99.90;;;;;;5026774;28;20098;-59
2021/07/16 09:10:56;;;;;;;22.08;6.55;;;18.80;99.90;;;;;;5027094;28;20414;-57
2021/07/16 09:13:27;;;;;;;31.13;12.52;;;18.80;99.90;;;;;;5027016;28;20053;-60
2021/07/16 09:16:03;;;;;;;26.75;6.28;;;18.80;99.90;;;;;;5023491;28;20057;-59
2021/07/16 09:18:33;;;;;;;29.15;13.60;;;18.90;99.90;;;;;;5037553;28;20050;-57
2021/07/16 09:21:10;;;;;;;26.35;9.88;;;19.00;99.90;;;;;;5007634;28;20053;-56
2021/07/16 09:23:46;;;;;;;25.63;6.47;;;19.10;99.90;;;;;;5010252;28;20085;-59
2021/07/16 09:26:25;;;;;;;27.83;7.22;;;19.20;99.90;;;;;;5027020;28;20096;-56
2021/07/16 09:29:04;;;;;;;28.08;8.48;;;19.30;99.90;;;;;;5027515;28;20060;-58
2021/07/16 09:31:41;;;;;;;25.45;7.40;;;19.60;99.90;;;;;;5025056;28;20075;-56
2021/07/16 09:34:19;;;;;;;41.13;10.18;;;19.70;99.90;;;;;;5027216;28;20038;-57
2021/07/16 09:36:51;;;;;;;29.00;7.60;;;19.80;99.90;;;;;;5020399;28;20943;-59
2021/07/16 09:39:29;;;;;;;28.50;13.60;;;19.90;99.90;;;;;;5026690;28;20049;-57
2021/07/16 09:42:05;;;;;;;22.95;7.82;;;20.00;99.90;;;;;;5026714;28;20056;-58
2021/07/16 09:44:45;;;;;;;32.55;15.93;;;20.10;99.90;;;;;;5026104;28;20081;-54
2021/07/16 09:47:16;;;;;;;38.85;20.05;;;20.10;99.90;;;;;;5022355;28;20159;-59
2021/07/16 09:50:12;;;;;;;24.73;6.95;;;19.80;99.90;;;;;;5025591;28;20076;-56
2021/07/16 09:52:41;;;;;;;22.85;7.68;;;19.80;99.90;;;;;;5026889;28;20132;-57
2021/07/16 09:55:18;;;;;;;25.80;7.90;;;19.90;99.90;;;;;;5026779;28;20184;-57
2021/07/16 09:57:49;;;;;;;21.05;6.57;;;20.10;99.90;;;;;;5026993;28;20049;-55
2021/07/16 10:00:25;;;;;;;26.70;6.10;;;20.10;99.90;;;;;;5029315;28;20053;-58
2021/07/16 10:02:56;;;;;;;25.75;6.93;;;20.20;99.90;;;;;;5025937;28;20045;-56
2021/07/16 10:05:29;;;;;;;21.85;8.85;;;20.30;99.90;;;;;;5031013;28;20045;-56
2021/07/16 10:08:08;;;;;;;23.23;6.68;;;19.90;99.90;;;;;;5031544;28;20048;-57
2021/07/16 10:10:38;;;;;;;19.92;5.85;;;19.80;99.90;;;;;;5022203;28;20099;-58
2021/07/16 10:13:10;;;;;;;23.33;6.30;;;19.90;99.90;;;;;;5030537;28;20176;-58
2021/07/16 10:15:45;;;;;;;27.30;6.03;;;19.80;99.90;;;;;;5025696;28;20077;-57
2021/07/16 10:18:14;;;;;;;20.15;6.18;;;20.00;99.90;;;;;;5029614;28;20080;-59
2021/07/16 10:20:41;;;;;;;26.38;6.97;;;20.00;99.90;;;;;;5029490;28;20050;-58
2021/07/16 10:23:12;;;;;;;23.52;6.88;;;19.90;99.90;;;;;;5037788;28;20045;-56
2021/07/16 10:25:48;;;;;;;28.75;7.18;;;19.90;99.90;;;;;;5038324;28;20060;-57
2021/07/16 10:28:41;;;;;;;23.08;7.07;;;20.10;99.90;;;;;;5044414;28;20049;-59
2021/07/16 10:31:29;;;;;;;22.65;8.30;;;20.20;99.90;;;;;;5034309;28;20066;-58
2021/07/16 10:33:58;;;;;;;23.38;7.35;;;20.20;99.90;;;;;;5039037;28;20047;-55
2021/07/16 10:36:37;;;;;;;23.17;8.00;;;20.20;99.90;;;;;;5032999;28;20486;-58
2021/07/16 10:39:09;;;;;;;30.42;8.48;;;20.30;99.90;;;;;;5029054;28;20168;-57
2021/07/16 10:41:40;;;;;;;21.58;6.65;;;20.50;99.90;;;;;;5028998;28;20065;-57
2021/07/16 10:44:14;;;;;;;22.95;10.02;;;20.40;99.90;;;;;;5044480;28;20049;-57
2021/07/16 10:46:46;;;;;;;28.55;7.80;;;20.40;99.90;;;;;;5031691;28;20156;-57
2021/07/16 10:49:17;;;;;;;25.48;7.88;;;20.40;99.90;;;;;;5040458;28;20053;-57
2021/07/16 10:51:45;;;;;;;25.73;6.68;;;20.40;99.90;;;;;;5029611;28;20045;-57
2021/07/16 10:54:15;;;;;;;23.17;6.20;;;20.40;99.90;;;;;;5034020;28;20053;-57
2021/07/16 10:56:45;;;;;;;24.13;9.90;;;20.60;99.90;;;;;;5034066;28;20049;-55
2021/07/16 10:59:45;;;;;;;23.67;6.40;;;20.80;99.90;;;;;;5024422;28;20081;-58
2021/07/16 11:02:47;;;;;;;24.17;8.90;;;20.90;99.90;;;;;;5027170;28;20195;-58
2021/07/16 11:05:36;;;;;;;33.88;12.60;;;21.00;99.90;;;;;;4987065;28;20137;-57
2021/07/16 11:08:03;;;;;;;22.33;7.22;;;20.80;99.90;;;;;;4980944;28;20058;-59
2021/07/16 11:10:50;;;;;;;30.02;8.10;;;20.60;99.90;;;;;;4985913;28;20137;-58
2021/07/16 11:13:35;;;;;;;29.20;8.40;;;20.70;99.90;;;;;;4986514;28;20050;-60
2021/07/16 11:16:24;;;;;;;25.45;8.38;;;20.60;99.90;;;;;;4996173;28;20058;-57
2021/07/16 11:19:07;;;;;;;20.58;6.32;;;20.80;99.90;;;;;;5005606;28;20050;-57
2021/07/16 11:21:40;;;;;;;25.15;7.03;;;20.80;99.90;;;;;;4998110;28;20102;-56
2021/07/16 11:24:22;;;;;;;23.80;6.38;;;20.90;99.90;;;;;;5004077;28;20064;-56
2021/07/16 11:26:50;;;;;;;21.05;5.95;;;20.80;99.90;;;;;;4994671;28;20081;-54
2021/07/16 11:29:27;;;;;;;23.17;6.55;;;20.80;99.90;;;;;;5009959;28;20056;-56
2021/07/16 11:32:13;;;;;;;27.90;7.55;;;20.70;99.90;;;;;;4993827;28;20058;-57
2021/07/16 11:34:53;;;;;;;20.90;7.45;;;20.70;99.90;;;;;;4992227;28;20054;-57
2021/07/16 11:37:26;;;;;;;23.67;6.85;;;20.80;99.90;;;;;;4993161;28;20081;-57
2021/07/16 11:40:00;;;;;;;26.08;6.72;;;20.80;99.90;;;;;;4993533;28;20050;-55
2021/07/16 11:42:35;;;;;;;24.10;6.82;;;21.00;99.90;;;;;;5039658;28;20132;-56
2021/07/16 11:45:06;;;;;;;24.08;6.80;;;21.10;99.90;;;;;;5034631;28;20099;-56
2021/07/16 11:47:36;;;;;;;24.63;7.17;;;21.20;99.90;;;;;;5040561;28;20056;-57
2021/07/16 11:50:15;;;;;;;22.10;6.85;;;21.40;99.90;;;;;;5018502;28;20054;-56
2021/07/16 11:52:50;;;;;;;20.58;7.47;;;21.30;99.90;;;;;;5028372;28;20050;-56
2021/07/16 11:55:27;;;;;;;22.20;7.38;;;21.30;99.90;;;;;;5027698;28;20409;-56
2021/07/16 11:58:03;;;;;;;22.38;6.93;;;21.20;99.90;;;;;;5033317;28;20103;-47
2021/07/16 12:00:40;;;;;;;19.35;6.32;;;21.20;99.90;;;;;;5034521;28;20041;-55
2021/07/16 12:03:12;;;;;;;22.60;7.07;;;21.10;99.90;;;;;;5022268;28;20492;-56
2021/07/16 12:05:54;;;;;;;23.42;6.75;;;21.10;99.90;;;;;;5034394;28;20045;-54
2021/07/16 12:08:34;;;;;;;28.70;8.00;;;21.10;99.90;;;;;;5028605;28;20048;-56
2021/07/16 12:11:05;;;;;;;23.02;7.03;;;21.00;99.90;;;;;;5035585;28;20057;-55
2021/07/16 12:13:35;;;;;;;23.85;6.95;;;20.90;99.90;;;;;;5025151;28;20496;-54
2021/07/16 12:16:07;;;;;;;26.75;7.45;;;20.70;99.90;;;;;;5012565;28;20092;-55
2021/07/16 12:18:41;;;;;;;25.73;7.30;;;20.90;99.90;;;;;;5040327;28;20052;-54
2021/07/16 12:21:16;;;;;;;25.63;6.93;;;21.10;99.90;;;;;;5036114;28;20081;-55
2021/07/16 12:23:50;;;;;;;29.98;8.73;;;21.20;99.90;;;;;;5025798;28;20053;-56
2021/07/16 12:26:22;;;;;;;22.08;7.38;;;21.30;99.90;;;;;;5027792;28;20068;-56
2021/07/16 12:29:09;;;;;;;19.75;6.63;;;21.40;99.90;;;;;;5032477;28;20128;-57
2021/07/16 12:31:38;;;;;;;25.38;8.68;;;21.40;99.90;;;;;;5028572;28;20172;-56
2021/07/16 12:34:24;;;;;;;30.02;13.13;;;21.40;99.90;;;;;;5026737;28;20072;-56
2021/07/16 12:37:09;;;;;;;25.17;6.70;;;21.40;99.90;;;;;;5027867;28;20100;-56
2021/07/16 12:39:59;;;;;;;21.90;7.28;;;21.40;99.90;;;;;;5027528;28;20121;-56
2021/07/16 12:42:29;;;;;;;22.30;7.18;;;21.40;99.90;;;;;;5027243;28;20057;-55
2021/07/16 12:45:12;;;;;;;17.80;6.90;;;21.50;99.90;;;;;;5025894;28;20045;-56
2021/07/16 12:47:56;;;;;;;25.35;8.30;;;21.60;99.90;;;;;;5027031;28;20045;-56
2021/07/16 12:50:29;;;;;;;21.85;8.45;;;21.70;99.90;;;;;;5027323;28;20045;-55
2021/07/16 12:53:01;;;;;;;20.85;7.47;;;21.50;99.90;;;;;;5025435;28;20049;-57
2021/07/16 12:55:36;;;;;;;;;;;21.50;99.90;;;;;;5027032;28;20086;-54
2021/07/16 12:58:14;;;;;;;21.92;7.57;;;21.40;99.90;;;;;;5027360;28;19924;-56
2021/07/16 13:00:44;;;;;;;25.70;7.28;;;21.50;99.90;;;;;;5028055;28;20095;-56
2021/07/16 13:03:19;;;;;;;21.80;8.23;;;21.60;99.90;;;;;;5027541;28;20045;-56